Time;durP1;ratioP1;P1;durP2;ratioP2;P2;SDS_P1;SDS_P2;PMS_P1;PMS_P2;Temp;Humidity;BMP_temperature;BMP_pressure;BME280_temperature;BME280_humidity;BME280_pressure;Samples;Min_cycle;Max_cycle;Signal;HPM_P1;HPM_P2
2020/12/26 00:04:41;;;;;;;0.20;0.00;;;-1.80;99.90;;;;;;20827551;28;20207;-65
2020/12/26 00:14:43;;;;;;;0.10;0.00;;;-1.70;99.90;;;;;;20828199;28;20510;-62
2020/12/26 00:24:44;;;;;;;0.10;0.00;;;-1.70;99.90;;;;;;20827489;28;20037;-65
2020/12/26 00:34:46;;;;;;;0.20;0.00;;;-1.80;99.90;;;;;;20809080;28;20381;-66
2020/12/26 00:44:48;;;;;;;0.10;0.00;;;-1.70;99.90;;;;;;20826544;28;20037;-65
2020/12/26 00:54:50;;;;;;;0.30;0.10;;;-1.60;99.90;;;;;;20826244;28;20041;-63
2020/12/26 01:04:52;;;;;;;1.55;0.00;;;-1.40;99.90;;;;;;20823084;28;20053;-65
2020/12/26 01:14:54;;;;;;;0.00;0.00;;;-1.60;99.90;;;;;;20838279;28;20050;-64
2020/12/26 01:24:56;;;;;;;0.10;0.00;;;-1.50;99.90;;;;;;20840969;28;20470;-65
2020/12/26 01:34:59;;;;;;;0.52;0.10;;;-1.30;99.90;;;;;;20841120;28;20034;-65
2020/12/26 01:45:00;;;;;;;0.00;0.00;;;-1.40;99.90;;;;;;20821984;28;20549;-65
2020/12/26 01:55:02;;;;;;;0.08;0.00;;;-1.60;99.90;;;;;;20838938;28;20037;-64
2020/12/26 02:05:04;;;;;;;0.00;0.00;;;-1.40;99.90;;;;;;20837799;28;20107;-65
2020/12/26 02:15:06;;;;;;;0.00;0.00;;;-1.60;99.90;;;;;;20837937;28;20037;-63
2020/12/26 02:25:08;;;;;;;0.10;0.00;;;-1.60;99.90;;;;;;20835795;28;20045;-65
2020/12/26 02:35:10;;;;;;;0.00;0.00;;;-1.30;99.90;;;;;;20836176;28;20045;-65
2020/12/26 02:45:11;;;;;;;0.00;0.00;;;-1.30;99.60;;;;;;20835085;28;20103;-65
2020/12/26 02:55:13;;;;;;;0.00;0.00;;;-1.30;99.00;;;;;;20834416;28;20064;-65
2020/12/26 03:05:15;;;;;;;0.00;0.00;;;-1.30;97.20;;;;;;20833719;28;20487;-63
2020/12/26 03:15:16;;;;;;;0.10;0.00;;;-1.40;96.80;;;;;;20831669;28;20087;-65
2020/12/26 03:25:19;;;;;;;0.20;0.00;;;-1.60;97.20;;;;;;20832427;28;20037;-65
2020/12/26 03:35:21;;;;;;;0.40;0.10;;;-1.70;97.10;;;;;;20830031;28;20052;-65
2020/12/26 03:45:22;;;;;;;0.00;0.00;;;-1.80;97.50;;;;;;20830337;28;20448;-64
2020/12/26 03:55:24;;;;;;;0.28;0.00;;;-1.80;96.70;;;;;;20829417;28;20095;-65
2020/12/26 04:05:26;;;;;;;0.00;0.00;;;-2.00;97.10;;;;;;20828434;28;20183;-63
2020/12/26 04:15:27;;;;;;;0.00;0.00;;;-2.30;97.90;;;;;;20827097;28;20034;-65
2020/12/26 04:25:30;;;;;;;0.00;0.00;;;-2.40;97.50;;;;;;20828326;28;20400;-65
2020/12/26 04:35:31;;;;;;;0.38;0.00;;;-2.80;99.50;;;;;;20825352;28;20103;-62
2020/12/26 04:45:33;;;;;;;0.10;0.00;;;-3.40;99.90;;;;;;20825487;28;20095;-62
2020/12/26 04:55:36;;;;;;;0.80;0.00;;;-3.40;99.90;;;;;;20825906;28;20037;-63
2020/12/26 05:05:42;;;;;;;0.05;0.00;;;-3.30;99.90;;;;;;20825527;28;20440;-62
2020/12/26 05:15:43;;;;;;;0.03;0.00;;;-3.10;99.30;;;;;;20825424;28;20560;-61
2020/12/26 05:25:49;;;;;;;0.10;0.00;;;-3.80;99.90;;;;;;20824465;28;20099;-62
2020/12/26 05:35:52;;;;;;;0.45;0.10;;;-4.20;99.90;;;;;;20824495;28;20435;-62
2020/12/26 05:45:55;;;;;;;0.00;0.00;;;-4.40;99.90;;;;;;20824016;28;20049;-62
2020/12/26 05:55:56;;;;;;;0.10;0.00;;;-4.00;98.70;;;;;;20809997;28;20087;-64
2020/12/26 06:06:03;;;;;;;0.00;0.00;;;-2.90;95.30;;;;;;20838593;28;20084;-65
2020/12/26 06:16:11;;;;;;;0.00;0.00;;;-2.60;92.50;;;;;;20838477;28;20084;-64
2020/12/26 06:26:16;;;;;;;0.08;0.00;;;-2.50;91.80;;;;;;20835096;28;20053;-64
2020/12/26 06:36:20;;;;;;;0.00;0.00;;;-2.90;93.30;;;;;;20836059;28;20095;-65
2020/12/26 06:46:22;;;;;;;0.00;0.00;;;-3.10;92.90;;;;;;20834193;28;20072;-64
2020/12/26 06:56:33;;;;;;;0.22;0.00;;;-3.20;93.20;;;;;;20834556;28;20029;-65
2020/12/26 07:06:48;;;;;;;0.03;0.00;;;-3.00;91.60;;;;;;20832495;28;20179;-65
2020/12/26 07:16:50;;;;;;;0.00;0.00;;;-2.70;90.00;;;;;;20833016;28;20041;-64
2020/12/26 07:26:52;;;;;;;0.00;0.00;;;-2.60;88.80;;;;;;20832437;28;20045;-65
2020/12/26 07:36:54;;;;;;;0.20;0.00;;;-2.50;85.70;;;;;;20831404;28;20397;-65
2020/12/26 07:46:56;;;;;;;0.17;0.05;;;-2.40;85.40;;;;;;20831020;28;20083;-63
2020/12/26 07:56:58;;;;;;;0.00;0.00;;;-2.30;84.70;;;;;;20829770;28;20091;-66
2020/12/26 08:07:03;;;;;;;0.00;0.00;;;-2.00;84.10;;;;;;20828552;28;20084;-66
2020/12/26 08:17:07;;;;;;;0.00;0.00;;;-1.70;78.90;;;;;;20826437;28;20037;-67
2020/12/26 08:27:09;;;;;;;0.05;0.00;;;-1.40;77.00;;;;;;20827236;28;20045;-66
2020/12/26 08:37:24;;;;;;;0.30;0.00;;;-1.30;76.10;;;;;;20825138;28;20510;-68
2020/12/26 08:47:32;;;;;;;0.10;0.00;;;-0.90;71.90;;;;;;20826147;28;20058;-67
2020/12/26 08:57:34;;;;;;;0.10;0.00;;;-0.60;69.10;;;;;;20841104;28;20091;-65
2020/12/26 09:07:36;;;;;;;0.13;0.03;;;-0.40;65.50;;;;;;20824716;28;20099;-64
2020/12/26 09:17:38;;;;;;;0.00;0.00;;;-0.10;63.60;;;;;;20824895;28;20056;-64
2020/12/26 09:27:40;;;;;;;0.10;0.08;;;0.00;62.10;;;;;;20824703;28;20045;-64
2020/12/26 09:37:52;;;;;;;0.00;0.00;;;0.20;59.70;;;;;;20839639;28;20029;-65
2020/12/26 09:47:58;;;;;;;0.30;0.10;;;0.30;58.60;;;;;;20839516;28;20045;-64
2020/12/26 09:58:00;;;;;;;0.22;0.00;;;0.30;58.40;;;;;;20839240;28;20091;-64
2020/12/26 10:08:02;;;;;;;0.47;0.10;;;0.60;57.50;;;;;;20837573;28;20108;-65
2020/12/26 10:18:04;;;;;;;0.20;0.00;;;0.70;57.70;;;;;;20837372;28;20040;-64
2020/12/26 10:28:05;;;;;;;0.15;0.03;;;0.50;55.60;;;;;;20834880;28;20046;-64
2020/12/26 10:38:07;;;;;;;0.30;0.10;;;0.40;56.60;;;;;;20836039;28;20471;-64
2020/12/26 10:48:09;;;;;;;0.20;0.05;;;0.50;56.90;;;;;;20817064;28;20171;-65
2020/12/26 10:58:12;;;;;;;0.00;0.00;;;0.70;54.50;;;;;;20833793;28;20391;-64
2020/12/26 11:08:14;;;;;;;1.20;0.15;;;1.00;53.00;;;;;;20832825;28;20057;-64
2020/12/26 11:18:16;;;;;;;0.17;0.10;;;1.10;53.70;;;;;;20833211;28;20033;-63
2020/12/26 11:28:18;;;;;;;0.13;0.10;;;1.00;53.10;;;;;;20831783;28;20455;-64
2020/12/26 11:38:19;;;;;;;0.40;0.10;;;1.10;53.20;;;;;;20829863;28;20091;-63
2020/12/26 11:48:21;;;;;;;0.20;0.10;;;1.30;52.50;;;;;;20830388;28;20041;-64
2020/12/26 11:58:24;;;;;;;0.20;0.10;;;1.40;51.10;;;;;;20828244;28;20038;-63
2020/12/26 12:08:26;;;;;;;0.17;0.10;;;1.40;50.80;;;;;;20988915;22;20084;-64
2020/12/26 12:18:27;;;;;;;0.60;0.10;;;1.70;48.30;;;;;;20827264;28;20080;-64
2020/12/26 12:28:29;;;;;;;0.10;0.00;;;1.60;48.70;;;;;;20827492;28;20045;-64
2020/12/26 12:38:31;;;;;;;0.38;0.10;;;1.60;50.70;;;;;;20826680;28;20041;-64
2020/12/26 12:48:33;;;;;;;0.40;0.10;;;1.40;49.90;;;;;;20826500;28;20103;-64
2020/12/26 12:58:35;;;;;;;0.10;0.03;;;1.20;49.60;;;;;;20791892;28;20091;-63
2020/12/26 13:08:37;;;;;;;0.00;0.00;;;1.00;49.20;;;;;;20823015;28;20574;-64
2020/12/26 13:18:39;;;;;;;0.10;0.10;;;0.70;51.20;;;;;;20825753;28;20434;-64
2020/12/26 13:28:41;;;;;;;0.10;0.10;;;0.40;50.20;;;;;;20824493;28;20061;-62
2020/12/26 13:38:43;;;;;;;0.40;0.20;;;0.20;51.20;;;;;;20790494;28;20087;-63
2020/12/26 13:48:46;;;;;;;0.30;0.10;;;0.10;51.90;;;;;;20822951;28;20487;-62
2020/12/26 13:58:47;;;;;;;0.45;0.10;;;0.00;52.80;;;;;;20823148;28;20045;-62
2020/12/26 14:08:50;;;;;;;0.00;0.00;;;-0.10;51.30;;;;;;20822774;28;20057;-62
2020/12/26 14:18:54;;;;;;;0.55;0.17;;;-0.10;52.70;;;;;;20828008;28;20064;-63
2020/12/26 14:28:56;;;;;;;0.08;0.00;;;-0.20;53.20;;;;;;20837237;28;20117;-62
2020/12/26 14:38:58;;;;;;;2.53;0.10;;;-0.50;54.50;;;;;;20836364;28;20328;-62
2020/12/26 14:49:01;;;;;;;0.10;0.10;;;-0.60;53.40;;;;;;20801185;28;20049;-62
2020/12/26 14:59:03;;;;;;;0.25;0.10;;;-0.80;53.50;;;;;;20834439;28;20083;-63
2020/12/26 15:09:06;;;;;;;1.23;0.10;;;-1.20;52.30;;;;;;20834235;28;20119;-62
2020/12/26 15:19:08;;;;;;;0.40;0.10;;;-1.70;54.50;;;;;;20832668;28;20049;-62
2020/12/26 15:29:10;;;;;;;0.20;0.05;;;-2.00;54.20;;;;;;20831937;28;20046;-62
2020/12/26 15:39:13;;;;;;;0.10;0.00;;;-2.10;53.40;;;;;;20831625;28;20075;-62
2020/12/26 15:49:15;;;;;;;0.32;0.10;;;-2.40;53.90;;;;;;20830536;28;20092;-61
2020/12/26 15:59:17;;;;;;;0.10;0.10;;;-2.50;54.70;;;;;;20829801;28;20087;-62
2020/12/26 16:09:20;;;;;;;0.15;0.05;;;-2.80;55.30;;;;;;20828656;28;20046;-65
2020/12/26 16:19:22;;;;;;;0.57;0.10;;;-2.50;54.30;;;;;;20810839;28;20167;-64
2020/12/26 16:29:24;;;;;;;0.20;0.00;;;-2.60;53.10;;;;;;20810346;28;20091;-65
2020/12/26 16:39:27;;;;;;;1.25;0.30;;;-2.50;51.40;;;;;;20825822;28;20037;-64
2020/12/26 16:49:31;;;;;;;0.88;0.20;;;-2.60;53.50;;;;;;20808676;28;20057;-65
2020/12/26 16:59:35;;;;;;;2.15;0.30;;;-2.70;53.30;;;;;;20825931;28;20067;-64
2020/12/26 17:09:38;;;;;;;0.20;0.00;;;-2.70;53.50;;;;;;20790763;28;20045;-66
2020/12/26 17:19:41;;;;;;;0.13;0.00;;;-2.70;53.40;;;;;;20824205;28;20479;-64
2020/12/26 17:29:44;;;;;;;0.20;0.10;;;-2.80;54.30;;;;;;20823752;28;20045;-64
2020/12/26 17:39:47;;;;;;;0.70;0.10;;;-2.80;55.00;;;;;;20806328;28;20057;-64
2020/12/26 17:49:49;;;;;;;0.38;0.10;;;-2.60;53.90;;;;;;20806743;28;20600;-64
2020/12/26 17:59:52;;;;;;;0.57;0.00;;;-2.70;54.40;;;;;;20839849;28;20060;-65
2020/12/26 18:09:55;;;;;;;0.20;0.10;;;-2.90;54.60;;;;;;20820629;28;20104;-64
2020/12/26 18:19:58;;;;;;;0.15;0.03;;;-2.60;54.10;;;;;;20837997;28;20033;-64
2020/12/26 18:30:00;;;;;;;0.63;0.15;;;-2.90;54.40;;;;;;20818358;28;20049;-64
2020/12/26 18:40:03;;;;;;;0.20;0.10;;;-3.20;58.30;;;;;;20836001;28;20119;-65
2020/12/26 18:50:06;;;;;;;0.30;0.08;;;-3.30;55.90;;;;;;20817436;28;20049;-64
2020/12/26 19:00:08;;;;;;;1.17;0.13;;;-3.30;54.50;;;;;;20834942;28;20026;-63
2020/12/26 19:10:11;;;;;;;0.93;0.20;;;-3.10;52.80;;;;;;20832500;28;20473;-65
2020/12/26 19:20:15;;;;;;;0.13;0.00;;;-2.80;51.90;;;;;;20816014;28;20041;-65
2020/12/26 19:30:17;;;;;;;0.00;0.00;;;-2.80;54.10;;;;;;20814862;28;20042;-64
2020/12/26 19:40:21;;;;;;;0.43;0.10;;;-3.10;49.80;;;;;;20813968;28;20045;-64
2020/12/26 19:50:24;;;;;;;0.50;0.10;;;-3.10;53.50;;;;;;20830490;28;20041;-64
2020/12/26 20:00:29;;;;;;;0.05;0.00;;;-3.50;50.90;;;;;;20812601;28;20056;-64
2020/12/26 20:10:38;;;;;;;0.08;0.00;;;-3.30;53.80;;;;;;20827693;28;20045;-64
2020/12/26 20:20:43;;;;;;;0.17;0.05;;;-4.20;63.50;;;;;;20828743;28;20039;-64
2020/12/26 20:30:45;;;;;;;0.73;0.03;;;-5.00;65.30;;;;;;20810024;28;20468;-64
2020/12/26 20:40:52;;;;;;;0.30;0.10;;;-5.20;65.80;;;;;;20826983;28;20033;-64
2020/12/26 20:50:59;;;;;;;0.32;0.10;;;-4.90;59.90;;;;;;20808568;28;20042;-64
2020/12/26 21:01:02;;;;;;;0.20;0.00;;;-4.70;59.10;;;;;;20825475;28;20029;-64
2020/12/26 21:11:06;;;;;;;0.35;0.00;;;-4.20;52.10;;;;;;20824523;28;20111;-65
2020/12/26 21:21:10;;;;;;;0.55;0.08;;;-3.10;50.10;;;;;;20808010;28;20092;-64
2020/12/26 21:31:13;;;;;;;0.20;0.10;;;-3.40;49.10;;;;;;20835069;28;20058;-64
2020/12/26 21:41:21;;;;;;;0.22;0.00;;;-4.00;54.60;;;;;;20823100;28;20076;-64
2020/12/26 21:51:24;;;;;;;0.85;0.10;;;-3.90;49.60;;;;;;20806087;28;20552;-64
2020/12/26 22:01:27;;;;;;;0.22;0.10;;;-3.50;53.10;;;;;;20840017;28;20118;-64
2020/12/26 22:11:31;;;;;;;0.25;0.10;;;-4.30;58.60;;;;;;20820862;28;20503;-64
2020/12/26 22:21:34;;;;;;;0.10;0.00;;;-5.10;62.50;;;;;;20838174;28;20080;-64
2020/12/26 22:31:36;;;;;;;0.10;0.00;;;-4.70;53.90;;;;;;20819192;28;20107;-64
2020/12/26 22:41:39;;;;;;;0.20;0.00;;;-3.90;53.90;;;;;;20834775;28;20064;-65
2020/12/26 22:51:41;;;;;;;0.20;0.00;;;-4.40;56.20;;;;;;20817634;28;20103;-65
2020/12/26 23:01:43;;;;;;;0.15;0.00;;;-4.70;54.20;;;;;;20834011;28;20041;-64
2020/12/26 23:11:47;;;;;;;0.10;0.00;;;-4.40;52.00;;;;;;20833484;28;20049;-64
2020/12/26 23:21:52;;;;;;;0.10;0.00;;;-4.00;51.40;;;;;;20816025;28;20093;-64
2020/12/26 23:31:57;;;;;;;0.10;0.00;;;-4.10;54.60;;;;;;20831997;28;20037;-64
2020/12/26 23:41:59;;;;;;;0.00;0.00;;;-4.60;55.30;;;;;;20831222;28;20391;-64
2020/12/26 23:52:03;;;;;;;0.10;0.00;;;-5.00;56.30;;;;;;20830087;28;20041;-64
